createdAt,value
2018-12-02T00:07:48.512Z,4.58
2018-12-02T00:10:17.586Z,4.49
2018-12-02T00:12:47.232Z,4.35
2018-12-02T00:15:16.120Z,4.37
2018-12-02T00:17:45.268Z,4.13
2018-12-02T00:20:15.305Z,3.93
2018-12-02T00:22:44.383Z,3.69
2018-12-02T00:25:13.177Z,3.64
2018-12-02T00:27:42.922Z,3.39
2018-12-02T00:30:12.510Z,3.17
2018-12-02T00:32:41.541Z,3.08
2018-12-02T00:35:12.725Z,2.93
2018-12-02T00:37:42.653Z,2.93
2018-12-02T00:40:13.942Z,2.76
2018-12-02T00:42:51.093Z,2.61
2018-12-02T00:45:20.422Z,2.51
2018-12-02T00:47:49.540Z,2.84
2018-12-02T00:50:18.647Z,3.27
2018-12-02T00:52:48.443Z,3.45
2018-12-02T00:55:19.487Z,3.23
2018-12-02T00:57:48.387Z,3.33
2018-12-02T01:00:18.208Z,3.33
2018-12-02T01:02:47.543Z,3.32
2018-12-02T01:05:16.516Z,3.53
2018-12-02T01:07:45.323Z,3.53
2018-12-02T01:10:13.915Z,3.30
2018-12-02T01:12:42.632Z,3.10
2018-12-02T01:15:13.142Z,3.40
2018-12-02T01:17:42.100Z,3.74
2018-12-02T01:20:12.147Z,3.40
2018-12-02T01:22:40.760Z,3.18
2018-12-02T01:25:09.599Z,3.09
2018-12-02T01:27:39.207Z,3.15
2018-12-02T01:30:08.135Z,3.62
2018-12-02T01:32:37.192Z,3.54
2018-12-02T01:35:05.980Z,3.53
2018-12-02T01:37:35.387Z,3.50
2018-12-02T01:40:04.479Z,3.31
2018-12-02T01:42:33.692Z,3.39
2018-12-02T01:45:02.739Z,3.73
2018-12-02T01:47:31.407Z,3.62
2018-12-02T01:50:01.168Z,3.47
2018-12-02T01:52:29.712Z,3.41
2018-12-02T01:54:58.334Z,3.49
2018-12-02T01:57:27.330Z,3.57
2018-12-02T01:59:56.117Z,3.74
2018-12-02T02:02:24.936Z,3.82
2018-12-02T02:04:53.723Z,3.60
2018-12-02T02:07:23.232Z,3.54
2018-12-02T02:09:52.347Z,3.45
2018-12-02T02:12:21.287Z,3.49
2018-12-02T02:14:49.982Z,3.57
2018-12-02T02:17:18.660Z,3.43
2018-12-02T02:19:47.449Z,3.50
2018-12-02T02:22:16.007Z,3.58
2018-12-02T02:24:44.724Z,3.64
2018-12-02T02:27:13.377Z,3.62
2018-12-02T02:29:41.990Z,3.50
2018-12-02T02:32:10.697Z,3.33
2018-12-02T02:34:39.467Z,3.31
2018-12-02T02:37:08.568Z,3.33
2018-12-02T02:39:37.159Z,3.40
2018-12-02T02:42:06.145Z,3.35
2018-12-02T02:44:34.741Z,3.21
2018-12-02T02:47:03.505Z,3.28
2018-12-02T02:49:32.295Z,3.10
2018-12-02T02:52:01.190Z,2.92
2018-12-02T02:54:30.251Z,2.81
2018-12-02T02:59:59.054Z,2.71
2018-12-02T03:02:29.727Z,2.80
2018-12-02T03:04:58.407Z,2.85
2018-12-02T03:07:26.994Z,2.91
2018-12-02T03:09:55.827Z,2.81
2018-12-02T03:12:24.580Z,2.72
2018-12-02T03:14:53.155Z,2.77
2018-12-02T03:17:22.142Z,2.80
2018-12-02T03:19:50.652Z,2.87
2018-12-02T03:22:19.256Z,2.92
2018-12-02T03:24:48.197Z,3.00
2018-12-02T03:27:16.688Z,2.98
2018-12-02T03:29:45.273Z,3.06
2018-12-02T03:32:13.898Z,3.11
2018-12-02T03:34:42.543Z,3.11
2018-12-02T03:37:11.969Z,3.12
2018-12-02T03:39:41.651Z,3.03
2018-12-02T03:42:11.774Z,3.01
2018-12-02T03:44:40.372Z,3.05
2018-12-02T03:47:10.097Z,3.04
2018-12-02T03:49:38.954Z,3.01
2018-12-02T03:52:07.658Z,3.01
2018-12-02T03:54:37.563Z,3.29
2018-12-02T03:57:06.138Z,3.27
2018-12-02T03:59:36.346Z,3.02
2018-12-02T04:02:05.330Z,2.91
2018-12-02T04:07:11.761Z,2.73
2018-12-02T04:09:41.460Z,2.61
2018-12-02T04:12:10.969Z,2.54
2018-12-02T04:14:40.083Z,2.57
2018-12-02T04:17:08.671Z,2.55
2018-12-02T04:19:37.657Z,2.48
2018-12-02T04:22:07.443Z,2.36
2018-12-02T04:24:36.761Z,2.36
2018-12-02T04:27:05.532Z,2.38
2018-12-02T04:29:34.602Z,2.34
2018-12-02T04:32:04.138Z,2.29
2018-12-02T04:34:33.450Z,2.25
2018-12-02T04:37:02.829Z,2.16
2018-12-02T04:39:31.947Z,2.10
2018-12-02T04:42:00.802Z,2.18
2018-12-02T04:44:29.714Z,2.19
2018-12-02T04:46:59.953Z,2.23
2018-12-02T04:49:29.023Z,2.20
2018-12-02T04:51:58.497Z,2.31
2018-12-02T04:54:27.547Z,2.40
2018-12-02T04:56:57.159Z,2.32
2018-12-02T04:59:27.349Z,2.21
2018-12-02T05:01:56.567Z,2.07
2018-12-02T05:04:25.992Z,2.01
2018-12-02T05:06:55.010Z,1.97
2018-12-02T05:09:23.818Z,2.03
2018-12-02T05:11:52.628Z,1.94
2018-12-02T05:14:22.718Z,2.08
2018-12-02T05:16:51.744Z,2.19
2018-12-02T05:19:21.295Z,2.18
2018-12-02T05:21:50.248Z,2.12
2018-12-02T05:24:19.158Z,2.08
2018-12-02T05:26:48.061Z,1.97
2018-12-02T05:29:17.451Z,1.99
2018-12-02T05:31:47.600Z,2.32
2018-12-02T05:34:16.966Z,2.65
2018-12-02T05:36:45.799Z,2.60
2018-12-02T05:39:14.489Z,2.48
2018-12-02T05:41:43.310Z,2.43
2018-12-02T05:44:11.995Z,2.43
2018-12-02T05:46:41.435Z,2.38
2018-12-02T05:49:10.150Z,2.42
2018-12-02T05:51:39.308Z,2.53
2018-12-02T05:54:08.432Z,2.56
2018-12-02T05:56:38.160Z,2.50
2018-12-02T05:59:07.459Z,2.40
2018-12-02T06:01:36.553Z,2.31
2018-12-02T06:04:05.577Z,2.22
2018-12-02T06:06:35.235Z,2.27
2018-12-02T06:09:04.873Z,2.85
2018-12-02T06:11:34.367Z,2.99
2018-12-02T06:14:03.465Z,2.97
2018-12-02T06:16:32.496Z,2.73
2018-12-02T06:19:02.018Z,2.50
2018-12-02T06:21:31.441Z,2.34
2018-12-02T06:24:00.574Z,2.35
2018-12-02T06:26:30.182Z,2.43
2018-12-02T06:28:59.560Z,2.42
2018-12-02T06:31:28.191Z,2.38
2018-12-02T06:33:56.950Z,2.30
2018-12-02T06:36:26.763Z,2.37
2018-12-02T06:38:55.945Z,2.63
2018-12-02T06:41:25.204Z,3.00
2018-12-02T06:43:54.960Z,3.40
2018-12-02T06:46:23.915Z,3.72
2018-12-02T06:48:52.618Z,3.98
2018-12-02T06:51:21.715Z,4.20
2018-12-02T06:53:50.363Z,4.63
2018-12-02T06:56:20.738Z,5.07
2018-12-02T06:58:51.777Z,5.47
2018-12-02T07:01:22.457Z,5.90
2018-12-02T07:03:52.286Z,6.15
2018-12-02T07:06:21.340Z,6.42
2018-12-02T07:08:50.055Z,6.76
2018-12-02T07:11:19.150Z,6.88
2018-12-02T07:13:48.087Z,6.90
2018-12-02T07:16:17.390Z,7.34
2018-12-02T07:18:46.554Z,7.75
2018-12-02T07:21:15.635Z,7.89
2018-12-02T07:23:45.973Z,8.15
2018-12-02T07:26:15.717Z,8.17
2018-12-02T07:28:44.765Z,8.34
2018-12-02T07:31:13.926Z,8.69
2018-12-02T07:33:43.912Z,8.86
2018-12-02T07:36:28.272Z,8.67
2018-12-02T07:39:12.275Z,9.00
2018-12-02T07:41:41.183Z,9.44
2018-12-02T07:44:12.645Z,9.58
2018-12-02T07:46:41.859Z,9.96
2018-12-02T07:49:11.367Z,10.07
2018-12-02T07:51:40.562Z,10.16
2018-12-02T07:54:10.542Z,10.39
2018-12-02T07:56:39.656Z,10.70
2018-12-02T07:59:11.748Z,11.06
2018-12-02T08:01:41.467Z,10.76
2018-12-02T08:04:10.980Z,10.51
2018-12-02T08:06:39.998Z,10.73
2018-12-02T08:09:12.415Z,11.24
2018-12-02T08:11:50.202Z,11.78
2018-12-02T08:14:19.913Z,11.97
2018-12-02T08:16:48.709Z,12.40
2018-12-02T08:19:17.467Z,12.80
2018-12-02T08:21:47.028Z,12.98
2018-12-02T08:24:16.202Z,12.94
2018-12-02T08:26:45.919Z,13.27
2018-12-02T08:29:14.926Z,13.21
2018-12-02T08:31:43.761Z,12.95
2018-12-02T08:34:12.662Z,12.58
2018-12-02T08:36:41.338Z,12.65
2018-12-02T08:39:10.443Z,12.89
2018-12-02T08:41:39.449Z,12.70
2018-12-02T08:44:09.424Z,12.64
2018-12-02T08:46:39.020Z,12.77
2018-12-02T08:49:09.115Z,12.94
2018-12-02T08:51:37.785Z,12.28
2018-12-02T08:54:06.890Z,12.25
2018-12-02T08:56:35.990Z,11.69
2018-12-02T08:59:05.311Z,11.91
2018-12-02T09:01:34.452Z,12.13
2018-12-02T09:04:04.560Z,12.68
2018-12-02T09:06:34.142Z,12.53
2018-12-02T09:09:03.863Z,13.00
2018-12-02T09:11:32.636Z,13.57
2018-12-02T09:14:02.410Z,14.00
2018-12-02T09:16:31.849Z,13.82
2018-12-02T09:19:01.214Z,13.54
2018-12-02T09:21:30.157Z,13.07
2018-12-02T09:23:59.467Z,11.97
2018-12-02T09:26:39.226Z,11.28
2018-12-02T09:32:31.940Z,12.14
2018-12-02T09:35:01.097Z,12.17
2018-12-02T09:37:30.410Z,11.56
2018-12-02T09:39:59.491Z,11.44
2018-12-02T09:42:28.567Z,11.30
2018-12-02T09:44:58.711Z,11.16
2018-12-02T09:47:32.861Z,11.17
2018-12-02T09:50:02.118Z,11.13
2018-12-02T09:52:32.044Z,11.07
2018-12-02T09:55:01.616Z,10.88
2018-12-02T09:57:30.788Z,11.00
2018-12-02T10:00:00.989Z,10.83
2018-12-02T10:02:30.826Z,10.30
2018-12-02T10:05:00.819Z,10.18
2018-12-02T10:07:30.339Z,9.91
2018-12-02T10:09:59.499Z,9.56
2018-12-02T10:12:28.529Z,9.42
2018-12-02T10:14:57.426Z,9.54
2018-12-02T10:17:27.308Z,9.70
2018-12-02T10:19:56.083Z,9.85
2018-12-02T10:22:26.556Z,9.82
2018-12-02T10:24:55.500Z,10.04
2018-12-02T10:27:24.245Z,10.39
2018-12-02T10:29:53.474Z,10.62
2018-12-02T10:32:23.266Z,10.48
2018-12-02T10:34:51.887Z,10.41
2018-12-02T10:37:20.728Z,10.01
2018-12-02T10:39:49.675Z,9.88
2018-12-02T10:42:18.350Z,10.11
2018-12-02T10:44:47.343Z,10.45
2018-12-02T10:47:16.130Z,10.57
2018-12-02T10:49:46.362Z,10.62
2018-12-02T10:52:15.300Z,10.66
2018-12-02T10:54:44.608Z,11.00
2018-12-02T10:57:14.521Z,11.00
2018-12-02T10:59:43.477Z,10.79
2018-12-02T11:02:12.521Z,10.81
2018-12-02T11:04:42.590Z,10.57
2018-12-02T11:07:11.523Z,10.49
2018-12-02T11:09:41.508Z,10.47
2018-12-02T11:12:10.961Z,10.40
2018-12-02T11:14:39.813Z,10.18
2018-12-02T11:17:09.568Z,10.00
2018-12-02T11:19:38.481Z,9.79
2018-12-02T11:22:07.243Z,9.56
2018-12-02T11:24:36.725Z,9.43
2018-12-02T11:27:06.185Z,9.50
2018-12-02T11:29:35.308Z,9.38
2018-12-02T11:32:04.119Z,9.43
2018-12-02T11:34:32.799Z,9.51
2018-12-02T11:37:02.395Z,9.59
2018-12-02T11:39:33.221Z,9.57
2018-12-02T11:42:02.115Z,9.65
2018-12-02T11:44:32.061Z,9.49
2018-12-02T11:47:01.962Z,9.44
2018-12-02T11:49:31.329Z,9.55
2018-12-02T11:52:00.713Z,9.56
2018-12-02T11:54:29.871Z,9.73
2018-12-02T11:57:00.961Z,9.43
2018-12-02T11:59:30.931Z,8.87
2018-12-02T12:02:00.397Z,8.80
2018-12-02T12:04:29.206Z,8.57
2018-12-02T12:06:58.863Z,8.50
2018-12-02T12:09:28.176Z,8.61
2018-12-02T13:48:12.866Z,10.08
2018-12-02T14:01:10.926Z,9.99
2018-12-02T14:03:40.252Z,10.12
2018-12-02T14:19:53.191Z,9.69
2018-12-02T14:22:22.641Z,9.54
2018-12-02T14:24:52.415Z,9.64
2018-12-02T14:27:22.586Z,9.86
2018-12-02T14:29:51.563Z,10.00
2018-12-02T14:32:20.772Z,10.04
2018-12-02T14:34:49.803Z,9.95
2018-12-02T14:37:18.771Z,9.95
2018-12-02T14:39:48.008Z,9.88
2018-12-02T14:42:17.358Z,9.77
2018-12-02T14:44:46.331Z,9.64
2018-12-02T14:47:16.386Z,9.47
2018-12-02T14:49:45.409Z,9.34
2018-12-02T14:52:14.619Z,9.72
2018-12-02T14:54:43.485Z,9.50
2018-12-02T14:57:13.407Z,9.38
2018-12-02T14:59:43.009Z,9.29
2018-12-02T15:02:12.232Z,9.24
2018-12-02T15:04:41.347Z,9.11
2018-12-02T15:07:10.626Z,9.24
2018-12-02T15:09:39.483Z,9.65
2018-12-02T15:12:08.709Z,9.54
2018-12-02T15:14:38.166Z,9.33
2018-12-02T15:17:07.662Z,9.18
2018-12-02T15:19:36.689Z,9.08
2018-12-02T15:22:06.051Z,8.97
2018-12-02T15:24:35.567Z,8.86
2018-12-02T15:27:04.584Z,8.96
2018-12-02T15:29:33.479Z,9.21
2018-12-02T15:32:02.751Z,9.43
2018-12-02T15:34:31.707Z,9.47
2018-12-02T15:37:01.426Z,9.46
2018-12-02T15:39:30.759Z,9.41
2018-12-02T15:42:00.056Z,9.51
2018-12-02T15:44:29.609Z,9.53
2018-12-02T15:46:58.448Z,9.50
2018-12-02T15:49:27.779Z,9.34
2018-12-02T15:51:57.868Z,9.05
2018-12-02T15:54:27.067Z,8.92
2018-12-02T15:56:57.404Z,8.86
2018-12-02T15:59:26.434Z,8.91
2018-12-02T16:01:55.995Z,9.33
2018-12-02T16:04:25.055Z,9.35
2018-12-02T16:06:56.097Z,9.32
2018-12-02T16:09:25.807Z,9.34
2018-12-02T16:11:55.204Z,9.37
2018-12-02T16:14:24.523Z,9.37
2018-12-02T16:16:53.683Z,9.29
2018-12-02T16:19:22.980Z,9.17
2018-12-02T16:21:52.367Z,9.17
2018-12-02T16:24:21.394Z,8.99
2018-12-02T16:26:50.630Z,8.87
2018-12-02T16:29:19.909Z,8.78
2018-12-02T16:31:49.889Z,8.62
2018-12-02T16:34:19.358Z,8.56
2018-12-02T16:36:48.912Z,8.78
2018-12-02T16:39:18.114Z,9.02
2018-12-02T16:41:47.981Z,8.95
2018-12-02T16:44:17.359Z,8.81
2018-12-02T16:46:46.582Z,8.73
2018-12-02T16:49:16.263Z,8.61
2018-12-02T16:51:46.311Z,8.47
2018-12-02T16:54:15.865Z,8.31
2018-12-02T16:56:44.975Z,8.18
2018-12-02T16:59:15.095Z,8.08
2018-12-02T17:01:44.320Z,8.00
2018-12-02T17:04:14.627Z,8.29
2018-12-02T17:06:44.836Z,8.87
2018-12-02T17:09:14.674Z,9.13
2018-12-02T17:11:44.636Z,9.26
2018-12-02T17:14:14.150Z,9.31
2018-12-02T17:16:44.662Z,9.27
2018-12-02T17:19:14.912Z,9.15
2018-12-02T17:21:44.489Z,9.09
2018-12-02T17:24:14.228Z,9.05
2018-12-02T17:26:44.067Z,8.94
2018-12-02T17:29:14.467Z,8.88
2018-12-02T17:31:44.621Z,8.85
2018-12-02T17:34:15.394Z,8.91
2018-12-02T17:36:45.812Z,8.93
2018-12-02T17:39:15.514Z,8.93
2018-12-02T17:41:45.283Z,8.92
2018-12-02T17:44:15.067Z,8.90
2018-12-02T17:46:45.812Z,8.87
2018-12-02T17:49:16.815Z,8.85
2018-12-02T17:51:46.565Z,8.79
2018-12-02T17:54:16.782Z,8.72
2018-12-02T17:56:46.555Z,8.70
2018-12-02T17:59:16.512Z,8.72
2018-12-02T18:01:46.414Z,8.72
2018-12-02T18:04:15.910Z,8.69
2018-12-02T18:06:45.295Z,8.75
2018-12-02T18:09:15.380Z,8.79
2018-12-02T18:11:44.787Z,8.86
2018-12-02T18:14:14.205Z,8.85
2018-12-02T18:16:44.103Z,8.94
2018-12-02T18:19:14.395Z,8.97
2018-12-02T18:21:43.767Z,9.03
2018-12-02T18:24:13.337Z,9.08
2018-12-02T18:26:42.667Z,9.13
2018-12-02T18:29:12.107Z,9.11
2018-12-02T18:31:41.930Z,9.24
2018-12-02T18:34:10.998Z,9.33
2018-12-02T18:36:40.431Z,9.42
2018-12-02T18:39:09.747Z,9.42
2018-12-02T18:41:38.859Z,9.42
2018-12-02T18:44:07.819Z,9.44
2018-12-02T18:46:38.764Z,9.43
2018-12-02T18:49:07.802Z,9.40
2018-12-02T18:51:37.035Z,9.52
2018-12-02T18:54:05.847Z,9.56
2018-12-02T18:56:35.941Z,9.62
2018-12-02T18:59:05.012Z,9.59
2018-12-02T19:01:35.777Z,9.59
2018-12-02T19:04:05.314Z,9.56
2018-12-02T19:06:34.205Z,9.47
2018-12-02T19:09:03.272Z,9.22
2018-12-02T19:11:32.674Z,9.18
2018-12-02T19:14:03.957Z,8.95
2018-12-02T19:16:33.632Z,8.72
2018-12-02T19:19:03.447Z,8.69
2018-12-02T19:21:32.437Z,8.80
2018-12-02T19:24:01.665Z,8.97
2018-12-02T19:26:30.557Z,9.20
2018-12-02T19:28:59.964Z,9.42
2018-12-02T19:31:29.357Z,9.54
2018-12-02T19:33:58.228Z,9.63
2018-12-02T19:36:27.703Z,9.76
2018-12-02T19:38:57.178Z,9.93
2018-12-02T19:41:26.789Z,9.92
2018-12-02T19:43:56.787Z,9.85
2018-12-02T19:46:26.887Z,9.84
2018-12-02T19:48:56.238Z,9.85
2018-12-02T19:51:25.655Z,9.85
2018-12-02T19:53:55.475Z,9.83
2018-12-02T19:56:24.582Z,9.84
2018-12-02T19:58:54.053Z,9.82
2018-12-02T20:01:24.604Z,9.76
2018-12-02T20:03:53.791Z,9.82
2018-12-02T20:06:23.640Z,9.90
2018-12-02T20:08:53.504Z,9.87
2018-12-02T20:11:23.990Z,9.80
2018-12-02T20:13:53.745Z,9.88
2018-12-02T20:16:23.607Z,9.94
2018-12-02T20:18:54.088Z,9.85
2018-12-02T20:21:24.010Z,9.74
2018-12-02T20:23:53.579Z,9.64
2018-12-02T20:26:22.876Z,9.68
2018-12-02T20:28:52.836Z,9.75
2018-12-02T20:31:22.905Z,9.73
2018-12-02T20:33:52.607Z,9.89
2018-12-02T20:36:23.467Z,9.88
2018-12-02T20:38:58.843Z,9.81
2018-12-02T20:41:29.025Z,9.74
2018-12-02T20:43:59.022Z,9.79
2018-12-02T20:46:29.885Z,9.87
2018-12-02T20:49:04.288Z,9.74
2018-12-02T20:51:34.227Z,9.77
2018-12-02T20:54:03.955Z,9.85
2018-12-02T21:27:59.399Z,9.43
2018-12-02T21:42:15.286Z,9.26
2018-12-02T23:06:48.286Z,9.26
2018-12-02T23:09:21.428Z,9.33
2018-12-02T23:15:53.887Z,9.39
2018-12-02T23:25:31.000Z,8.96
2018-12-02T23:30:32.637Z,9.05
2018-12-02T23:33:01.431Z,9.24
2018-12-02T23:35:32.010Z,9.35
2018-12-02T23:38:02.220Z,9.40
2018-12-02T23:40:31.031Z,9.55
2018-12-02T23:42:59.785Z,9.53
2018-12-02T23:45:29.188Z,9.50
2018-12-02T23:48:00.687Z,9.43
2018-12-02T23:50:31.492Z,9.48
2018-12-02T23:53:01.053Z,9.42
2018-12-02T23:55:30.018Z,9.44
2018-12-02T23:57:58.943Z,9.44
